Time;durP1;ratioP1;P1;durP2;ratioP2;P2;SDS_P1;SDS_P2;PMS_P1;PMS_P2;Temp;Humidity;BMP_temperature;BMP_pressure;BME280_temperature;BME280_humidity;BME280_pressure;Samples;Min_cycle;Max_cycle;Signal;HPM_P1;HPM_P2
2023/04/16 00:00:36;;;;;;;20.83;18.87;;;9.80;81.20;;;;;;6288141;28;20774;-83
2023/04/16 00:03:39;;;;;;;21.53;19.53;;;9.70;81.20;;;;;;6288903;28;20309;-84
2023/04/16 00:06:43;;;;;;;23.80;21.40;;;9.70;81.20;;;;;;6282023;28;20397;-85
2023/04/16 00:09:46;;;;;;;21.77;19.67;;;9.70;81.20;;;;;;6281805;28;20259;-82
2023/04/16 00:12:50;;;;;;;24.10;21.83;;;9.70;81.20;;;;;;6291838;28;20244;-84
2023/04/16 00:15:53;;;;;;;24.27;21.77;;;9.70;81.20;;;;;;6304115;28;20284;-83
2023/04/16 00:18:57;;;;;;;21.50;19.47;;;9.70;81.20;;;;;;6315454;28;20264;-82
2023/04/16 00:22:00;;;;;;;22.90;20.67;;;9.70;81.20;;;;;;6305399;28;20312;-82
2023/04/16 00:25:03;;;;;;;21.80;19.80;;;9.70;81.20;;;;;;6288260;28;20247;-83
2023/04/16 00:28:07;;;;;;;23.40;21.20;;;9.80;81.20;;;;;;6293537;28;20299;-79
2023/04/16 00:31:12;;;;;;;24.33;22.10;;;9.70;81.20;;;;;;6294078;28;20619;-84
2023/04/16 00:34:16;;;;;;;23.63;21.40;;;9.80;81.20;;;;;;6290978;28;20241;-81
2023/04/16 00:37:19;;;;;;;21.10;19.20;;;9.80;81.20;;;;;;6292564;28;20693;-81
2023/04/16 00:40:22;;;;;;;25.37;22.87;;;9.80;81.20;;;;;;6293307;28;20243;-82
2023/04/16 00:43:27;;;;;;;23.50;21.20;;;9.70;81.30;;;;;;6289093;28;20248;-82
2023/04/16 00:46:31;;;;;;;24.40;21.87;;;9.70;81.40;;;;;;6301390;28;20247;-79
2023/04/16 00:49:35;;;;;;;22.83;20.60;;;9.80;81.20;;;;;;6294170;28;20267;-80
2023/04/16 00:52:39;;;;;;;25.73;23.23;;;9.80;81.20;;;;;;6286215;28;20485;-82
2023/04/16 00:55:43;;;;;;;24.17;21.93;;;9.80;81.20;;;;;;6291988;28;20240;-84
2023/04/16 00:58:47;;;;;;;24.87;22.57;;;9.80;81.20;;;;;;6292072;28;20255;-83
2023/04/16 01:01:51;;;;;;;23.23;21.03;;;9.70;81.20;;;;;;6277718;28;20229;-81
2023/04/16 01:04:55;;;;;;;26.17;23.47;;;9.70;81.30;;;;;;6290833;28;20237;-83
2023/04/16 01:07:59;;;;;;;24.03;21.73;;;9.80;81.20;;;;;;6289011;28;20305;-83
2023/04/16 01:11:03;;;;;;;26.43;23.73;;;9.80;81.20;;;;;;6288706;28;20241;-82
2023/04/16 01:14:07;;;;;;;22.90;20.60;;;9.80;81.30;;;;;;6288631;28;20248;-81
2023/04/16 01:17:12;;;;;;;24.07;21.77;;;9.70;81.20;;;;;;6287985;28;20245;-82
2023/04/16 01:20:15;;;;;;;25.80;23.23;;;9.70;81.20;;;;;;6287761;28;20237;-84
2023/04/16 01:23:20;;;;;;;24.73;22.43;;;9.80;81.20;;;;;;6288782;28;20291;-83
2023/04/16 01:26:23;;;;;;;26.30;23.77;;;9.80;81.30;;;;;;6284297;28;20230;-83
2023/04/16 01:29:26;;;;;;;23.60;21.30;;;9.70;81.20;;;;;;6284864;28;20245;-81
2023/04/16 01:32:31;;;;;;;23.43;21.07;;;9.80;81.30;;;;;;6275713;28;20233;-84
2023/04/16 01:35:35;;;;;;;26.77;24.13;;;9.70;81.40;;;;;;6283338;28;20471;-84
2023/04/16 01:38:39;;;;;;;24.20;21.90;;;9.70;81.50;;;;;;6285057;28;20852;-81
2023/04/16 01:41:43;;;;;;;26.17;23.73;;;9.70;81.40;;;;;;6282601;28;20268;-84
2023/04/16 01:44:47;;;;;;;26.53;23.97;;;9.80;81.40;;;;;;6292153;28;20259;-83
2023/04/16 01:47:51;;;;;;;25.40;23.03;;;9.70;81.30;;;;;;6282717;28;20233;-84
2023/04/16 01:50:54;;;;;;;27.57;24.60;;;9.80;81.30;;;;;;6290459;28;20256;-82
2023/04/16 01:54:01;;;;;;;22.80;20.70;;;9.80;81.20;;;;;;6299741;28;20274;-79
2023/04/16 01:57:05;;;;;;;25.67;23.37;;;9.70;81.30;;;;;;6322563;28;20240;-78
2023/04/16 02:00:09;;;;;;;25.83;23.40;;;9.70;81.40;;;;;;6320967;28;20377;-79
2023/04/16 02:03:12;;;;;;;25.70;23.27;;;9.70;81.20;;;;;;6317290;28;20329;-78
2023/04/16 02:06:15;;;;;;;25.07;22.50;;;9.70;81.20;;;;;;6321905;28;20279;-83
2023/04/16 02:09:20;;;;;;;26.07;23.57;;;9.70;81.30;;;;;;6320479;28;20224;-79
2023/04/16 02:12:23;;;;;;;26.47;23.70;;;9.70;81.30;;;;;;6321148;28;20241;-78
2023/04/16 02:15:26;;;;;;;24.93;22.37;;;9.70;81.30;;;;;;6303475;28;20252;-81
2023/04/16 02:18:29;;;;;;;26.17;21.87;;;9.70;81.20;;;;;;6283254;28;20247;-80
2023/04/16 02:21:32;;;;;;;26.80;23.83;;;9.70;81.20;;;;;;6292192;28;20256;-82
2023/04/16 02:24:37;;;;;;;24.87;22.57;;;9.70;81.10;;;;;;6291757;28;20317;-80
2023/04/16 02:27:40;;;;;;;23.83;21.47;;;9.70;81.20;;;;;;6292575;28;21015;-81
2023/04/16 02:30:43;;;;;;;23.10;20.90;;;9.70;81.20;;;;;;6291662;28;20705;-82
2023/04/16 02:33:46;;;;;;;25.40;22.90;;;9.60;81.40;;;;;;6312294;28;20244;-78
2023/04/16 02:36:49;;;;;;;24.87;22.37;;;9.70;81.20;;;;;;6311020;28;20217;-77
2023/04/16 02:39:54;;;;;;;24.87;22.57;;;9.60;81.30;;;;;;6319766;28;20241;-78
2023/04/16 02:42:58;;;;;;;25.47;22.83;;;9.70;81.20;;;;;;6320040;28;20233;-79
2023/04/16 02:46:01;;;;;;;27.37;24.53;;;9.60;81.20;;;;;;6317615;28;20462;-79
2023/04/16 02:49:04;;;;;;;26.23;23.63;;;9.60;81.20;;;;;;6319241;28;20217;-78
2023/04/16 02:52:08;;;;;;;26.47;23.73;;;9.60;81.10;;;;;;6310946;28;20315;-80
2023/04/16 02:55:13;;;;;;;25.10;22.70;;;9.60;81.10;;;;;;6317178;28;20244;-79
2023/04/16 02:58:16;;;;;;;27.57;24.77;;;9.60;81.10;;;;;;6299238;28;20691;-81
2023/04/16 03:01:19;;;;;;;27.27;24.57;;;9.60;81.10;;;;;;6282881;28;20305;-83
2023/04/16 03:04:22;;;;;;;28.47;25.63;;;9.60;81.00;;;;;;6288811;28;20466;-83
2023/04/16 03:07:25;;;;;;;28.80;25.13;;;9.60;80.90;;;;;;6287844;28;20756;-82
2023/04/16 03:10:30;;;;;;;27.13;24.33;;;9.60;80.90;;;;;;6287004;28;20352;-81
2023/04/16 03:13:33;;;;;;;29.30;26.10;;;9.60;80.90;;;;;;6288061;28;20246;-84
2023/04/16 03:16:36;;;;;;;28.80;25.50;;;9.60;80.80;;;;;;6286963;28;20320;-81
2023/04/16 03:19:39;;;;;;;28.70;25.77;;;9.50;80.80;;;;;;6282373;28;20664;-83
2023/04/16 03:22:43;;;;;;;27.53;24.33;;;9.50;80.90;;;;;;6287086;28;20328;-82
2023/04/16 03:25:47;;;;;;;30.00;26.83;;;9.50;80.90;;;;;;6288924;28;21014;-83
2023/04/16 03:28:50;;;;;;;30.90;26.23;;;9.60;80.90;;;;;;6279292;28;20573;-81
2023/04/16 03:31:53;;;;;;;29.83;26.40;;;9.50;80.80;;;;;;6273650;28;20366;-85
2023/04/16 03:34:57;;;;;;;32.93;27.50;;;9.40;81.00;;;;;;6245740;28;1152718;-83
2023/04/16 03:38:00;;;;;;;30.73;27.30;;;9.50;80.80;;;;;;6286997;28;20240;-82
2023/04/16 03:41:04;;;;;;;29.73;26.53;;;9.40;80.80;;;;;;6285428;28;20759;-80
2023/04/16 03:44:07;;;;;;;32.03;28.60;;;9.40;80.90;;;;;;6286955;28;20340;-80
2023/04/16 03:47:10;;;;;;;32.53;26.90;;;9.40;80.90;;;;;;6306701;28;20272;-82
2023/04/16 03:50:14;;;;;;;32.10;27.53;;;9.40;80.90;;;;;;6287178;28;20443;-84
2023/04/16 03:53:17;;;;;;;29.80;26.57;;;9.40;80.90;;;;;;6286726;28;20283;-82
2023/04/16 03:56:21;;;;;;;30.07;26.27;;;9.30;80.90;;;;;;6283760;28;20693;-80
2023/04/16 03:59:24;;;;;;;27.30;24.33;;;9.20;81.00;;;;;;6287763;28;20229;-81
2023/04/16 04:02:27;;;;;;;28.10;24.93;;;9.20;81.00;;;;;;6283033;28;20734;-83
2023/04/16 04:05:31;;;;;;;26.80;23.93;;;9.20;81.00;;;;;;6286393;28;20297;-80
2023/04/16 04:08:34;;;;;;;28.13;25.07;;;9.20;80.90;;;;;;6286545;28;20721;-81
2023/04/16 04:11:38;;;;;;;26.03;23.20;;;9.20;81.00;;;;;;6287337;28;20256;-80
2023/04/16 04:14:42;;;;;;;27.83;24.10;;;9.20;81.00;;;;;;6285360;28;20617;-81
2023/04/16 04:17:45;;;;;;;30.00;24.67;;;9.20;81.20;;;;;;6287597;28;20256;-81
2023/04/16 04:20:54;;;;;;;25.83;23.13;;;9.20;81.00;;;;;;6287969;28;20484;-79
2023/04/16 04:23:57;;;;;;;33.37;27.43;;;9.20;81.00;;;;;;6281280;28;20246;-81
2023/04/16 04:27:02;;;;;;;31.40;26.20;;;9.20;81.10;;;;;;6287392;28;20233;-79
2023/04/16 04:30:06;;;;;;;33.50;26.70;;;9.20;80.90;;;;;;6287569;28;20247;-79
2023/04/16 04:33:10;;;;;;;29.90;24.93;;;9.20;81.00;;;;;;6273947;28;20287;-83
2023/04/16 04:36:13;;;;;;;34.07;28.00;;;9.20;81.10;;;;;;6280421;28;20307;-80
2023/04/16 04:39:16;;;;;;;30.83;26.03;;;9.20;80.90;;;;;;6286488;28;20469;-80
2023/04/16 04:42:21;;;;;;;30.17;26.50;;;9.20;81.10;;;;;;6281252;28;20610;-80
2023/04/16 04:45:25;;;;;;;35.03;27.53;;;9.20;81.00;;;;;;6285007;28;20432;-82
2023/04/16 04:48:28;;;;;;;31.60;25.93;;;9.10;81.10;;;;;;6283802;28;20241;-81
2023/04/16 04:51:31;;;;;;;32.90;25.80;;;9.20;81.00;;;;;;6284437;28;20726;-81
2023/04/16 04:54:35;;;;;;;29.53;25.60;;;9.20;81.00;;;;;;6283259;28;20488;-82
2023/04/16 04:57:39;;;;;;;35.43;27.67;;;9.20;81.00;;;;;;6298695;28;20247;-79
2023/04/16 05:00:42;;;;;;;30.50;26.67;;;9.20;81.00;;;;;;6303950;28;20295;-78
2023/04/16 05:03:46;;;;;;;33.37;26.33;;;9.20;81.00;;;;;;6304642;28;20432;-79
2023/04/16 05:06:49;;;;;;;32.00;27.07;;;9.20;80.90;;;;;;6314454;28;20239;-76
2023/04/16 05:09:52;;;;;;;32.03;27.40;;;9.20;81.00;;;;;;6301563;28;20312;-81
2023/04/16 05:12:57;;;;;;;33.97;26.53;;;9.20;80.80;;;;;;6280318;28;20617;-80
2023/04/16 05:16:00;;;;;;;36.57;27.73;;;9.20;80.80;;;;;;6286770;28;20249;-82
2023/04/16 05:19:03;;;;;;;32.27;26.60;;;9.20;80.70;;;;;;6285799;28;20619;-81
2023/04/16 05:22:06;;;;;;;30.63;25.97;;;9.20;80.80;;;;;;6281056;28;20245;-81
2023/04/16 05:25:10;;;;;;;33.37;26.57;;;9.20;80.90;;;;;;6286049;28;20255;-81
2023/04/16 05:28:14;;;;;;;35.53;27.40;;;9.20;81.00;;;;;;6286155;28;20293;-80
2023/04/16 05:31:17;;;;;;;29.60;25.10;;;9.20;80.80;;;;;;6282854;28;20765;-79
2023/04/16 05:34:21;;;;;;;28.33;23.70;;;9.20;80.80;;;;;;6285418;28;20233;-80
2023/04/16 05:37:24;;;;;;;32.00;25.30;;;9.20;80.70;;;;;;6280535;28;20295;-82
2023/04/16 05:40:27;;;;;;;29.17;23.27;;;9.20;80.90;;;;;;6285838;28;20806;-81
2023/04/16 05:43:31;;;;;;;29.97;23.70;;;9.20;80.90;;;;;;6290733;28;20237;-79
2023/04/16 05:46:35;;;;;;;29.93;24.23;;;9.20;80.90;;;;;;6283404;28;20241;-80
2023/04/16 05:49:38;;;;;;;27.73;23.60;;;9.20;80.80;;;;;;6285374;28;20229;-81
2023/04/16 05:52:41;;;;;;;25.50;22.33;;;9.20;80.90;;;;;;6283339;28;20290;-80
2023/04/16 05:55:45;;;;;;;25.20;22.30;;;9.20;80.90;;;;;;6281771;28;20729;-80
2023/04/16 05:58:49;;;;;;;28.50;23.77;;;9.20;80.80;;;;;;6284716;28;20778;-81
2023/04/16 06:01:53;;;;;;;26.13;22.90;;;9.20;80.80;;;;;;6281992;28;20233;-80
2023/04/16 06:04:56;;;;;;;25.03;22.00;;;9.20;80.90;;;;;;6277286;28;20225;-82
2023/04/16 06:07:59;;;;;;;26.57;22.63;;;9.20;80.90;;;;;;6278126;28;20225;-80
2023/04/16 06:11:03;;;;;;;29.53;23.13;;;9.30;80.70;;;;;;6282873;28;20252;-80
2023/04/16 06:14:07;;;;;;;27.67;22.87;;;9.30;80.70;;;;;;6283657;28;20229;-84
2023/04/16 06:17:11;;;;;;;25.03;22.10;;;9.30;80.70;;;;;;6283780;28;20994;-82
2023/04/16 06:20:16;;;;;;;26.63;22.57;;;9.30;80.80;;;;;;6282269;28;20831;-80
2023/04/16 06:23:19;;;;;;;28.87;23.20;;;9.40;80.70;;;;;;6284477;28;20244;-83
2023/04/16 06:26:22;;;;;;;25.47;22.60;;;9.40;80.70;;;;;;6286088;28;20635;-80
2023/04/16 06:29:26;;;;;;;28.30;23.47;;;9.40;80.40;;;;;;6285620;28;20233;-80
2023/04/16 06:32:45;;;;;;;24.97;22.00;;;9.40;80.50;;;;;;6288064;28;20483;-81
2023/04/16 06:35:48;;;;;;;25.93;21.40;;;9.40;80.50;;;;;;6291047;28;20304;-80
2023/04/16 06:38:51;;;;;;;24.47;21.73;;;9.50;80.40;;;;;;6285784;28;20237;-80
2023/04/16 06:41:54;;;;;;;26.97;22.27;;;9.50;80.20;;;;;;6289389;28;20244;-82
2023/04/16 06:44:59;;;;;;;24.63;21.50;;;9.50;80.20;;;;;;6281843;28;20233;-80
2023/04/16 06:48:03;;;;;;;24.87;21.73;;;9.60;80.10;;;;;;6290020;27;20245;-82
2023/04/16 06:51:07;;;;;;;24.73;21.70;;;9.70;80.00;;;;;;6290080;28;20644;-81
2023/04/16 06:54:10;;;;;;;25.13;22.23;;;9.70;79.90;;;;;;6288737;28;20245;-80
2023/04/16 06:57:16;;;;;;;28.13;22.77;;;9.70;79.70;;;;;;6289348;28;20372;-81
2023/04/16 07:00:21;;;;;;;25.60;20.97;;;9.70;79.70;;;;;;6289796;28;20856;-80
2023/04/16 07:03:24;;;;;;;21.53;19.33;;;9.70;80.00;;;;;;6284113;28;20241;-81
2023/04/16 07:06:27;;;;;;;27.27;23.47;;;9.80;80.00;;;;;;6287251;28;20279;-82
2023/04/16 07:09:30;;;;;;;24.30;21.23;;;9.80;79.70;;;;;;6288888;28;20229;-80
2023/04/16 07:12:33;;;;;;;23.10;20.53;;;9.80;79.50;;;;;;6276818;28;20302;-79
2023/04/16 07:15:38;;;;;;;24.37;21.27;;;9.90;79.50;;;;;;6289946;28;20238;-81
2023/04/16 07:18:41;;;;;;;25.73;22.33;;;9.90;79.30;;;;;;6290131;28;20316;-82
2023/04/16 07:21:47;;;;;;;24.17;20.57;;;9.90;79.30;;;;;;6307866;28;20233;-79
2023/04/16 07:24:50;;;;;;;27.60;22.27;;;9.80;79.30;;;;;;6315511;28;20267;-79
2023/04/16 07:27:53;;;;;;;26.23;22.10;;;9.90;79.30;;;;;;6312960;28;20337;-76
2023/04/16 07:30:58;;;;;;;23.97;20.67;;;9.80;79.40;;;;;;6316477;28;20221;-77
2023/04/16 07:34:01;;;;;;;24.30;21.30;;;9.80;79.30;;;;;;6292299;28;20238;-82
2023/04/16 07:37:04;;;;;;;24.57;20.87;;;9.80;79.10;;;;;;6285471;28;20233;-81
2023/04/16 07:40:09;;;;;;;24.23;20.70;;;9.80;79.20;;;;;;6287650;28;20240;-80
2023/04/16 07:43:14;;;;;;;24.00;20.53;;;9.80;79.30;;;;;;6281595;28;20233;-80
2023/04/16 07:46:18;;;;;;;23.47;21.03;;;9.80;79.30;;;;;;6286636;28;20248;-83
2023/04/16 07:49:21;;;;;;;23.53;21.27;;;10.00;79.20;;;;;;6287263;28;20323;-80
2023/04/16 07:52:25;;;;;;;22.87;20.03;;;9.90;79.10;;;;;;6285761;28;20394;-80
2023/04/16 07:55:28;;;;;;;23.63;21.00;;;10.00;79.00;;;;;;6284639;28;20237;-81
2023/04/16 07:58:31;;;;;;;23.77;21.17;;;9.90;78.80;;;;;;6287854;28;20233;-79
2023/04/16 08:01:36;;;;;;;25.37;21.83;;;9.90;78.80;;;;;;6284766;28;20248;-79
2023/04/16 08:04:39;;;;;;;24.10;21.50;;;9.80;78.90;;;;;;6289248;28;20233;-81
2023/04/16 08:07:42;;;;;;;23.30;18.97;;;9.80;79.20;;;;;;6288103;28;20635;-80
2023/04/16 08:10:45;;;;;;;21.97;19.67;;;9.80;79.10;;;;;;6284219;28;20238;-80
2023/04/16 08:13:48;;;;;;;24.57;20.70;;;9.80;79.30;;;;;;6287347;28;20237;-81
2023/04/16 08:16:53;;;;;;;25.80;21.30;;;9.80;79.10;;;;;;6281707;28;20234;-82
2023/04/16 08:19:56;;;;;;;22.07;19.17;;;9.80;79.20;;;;;;6287675;28;20626;-80
2023/04/16 08:22:59;;;;;;;20.93;18.73;;;9.70;79.50;;;;;;6284612;28;20700;-82
2023/04/16 08:26:02;;;;;;;24.07;19.80;;;9.80;79.30;;;;;;6288284;28;20263;-78
2023/04/16 08:29:05;;;;;;;23.43;19.57;;;9.80;79.20;;;;;;6287099;28;20233;-78
2023/04/16 08:32:10;;;;;;;23.93;20.10;;;9.80;79.30;;;;;;6286157;28;20244;-81
2023/04/16 08:35:13;;;;;;;22.27;19.73;;;9.80;79.30;;;;;;6283622;28;20386;-83
2023/04/16 08:38:16;;;;;;;26.07;20.40;;;9.70;79.30;;;;;;6288710;28;20225;-81
2023/04/16 08:41:22;;;;;;;22.20;19.70;;;9.80;79.20;;;;;;6286820;28;20247;-82
2023/04/16 08:44:27;;;;;;;21.87;18.00;;;9.70;79.60;;;;;;6281539;28;20237;-83
2023/04/16 08:47:34;;;;;;;20.77;18.17;;;9.70;79.70;;;;;;6287065;28;20345;-80
2023/04/16 08:50:38;;;;;;;21.70;18.90;;;9.80;79.90;;;;;;6281320;28;20258;-80
2023/04/16 08:53:49;;;;;;;22.57;19.90;;;9.90;79.80;;;;;;6286806;28;20240;-79
2023/04/16 08:56:52;;;;;;;21.87;19.57;;;9.90;79.80;;;;;;6287706;28;20230;-80
2023/04/16 08:59:56;;;;;;;20.57;18.57;;;10.00;79.60;;;;;;6279416;28;20793;-83
2023/04/16 09:03:00;;;;;;;23.10;19.60;;;10.00;79.50;;;;;;6283474;28;20237;-79
2023/04/16 09:06:04;;;;;;;23.30;20.83;;;10.00;79.50;;;;;;6280082;28;20234;-80
2023/04/16 09:09:09;;;;;;;23.17;20.70;;;10.10;79.20;;;;;;6285838;28;20789;-83
2023/04/16 09:12:13;;;;;;;21.27;19.17;;;10.10;79.10;;;;;;6287134;28;20242;-79
2023/04/16 09:15:16;;;;;;;24.07;20.37;;;10.10;79.20;;;;;;6286382;28;20244;-78
2023/04/16 09:18:21;;;;;;;22.67;20.43;;;10.10;79.00;;;;;;6282704;28;20589;-78
2023/04/16 09:21:24;;;;;;;21.13;18.87;;;10.20;79.10;;;;;;6285123;28;20237;-79
2023/04/16 09:24:28;;;;;;;21.37;19.07;;;10.30;79.10;;;;;;6286006;28;20662;-79
2023/04/16 09:27:32;;;;;;;21.73;19.30;;;10.40;79.30;;;;;;6276576;28;20673;-79
2023/04/16 09:30:36;;;;;;;20.43;18.40;;;10.60;78.70;;;;;;6285983;28;20717;-80
2023/04/16 09:33:41;;;;;;;19.93;17.93;;;10.70;78.30;;;;;;6282526;28;20399;-80
2023/04/16 09:36:44;;;;;;;20.73;18.40;;;10.60;77.80;;;;;;6282505;28;20233;-81
2023/04/16 09:39:53;;;;;;;17.70;16.00;;;10.70;77.80;;;;;;6275650;28;20459;-80
2023/04/16 09:42:59;;;;;;;19.87;17.90;;;10.70;77.90;;;;;;6282495;28;20229;-78
2023/04/16 09:46:04;;;;;;;21.37;19.17;;;10.70;78.00;;;;;;6297667;28;20314;-78
2023/04/16 09:49:14;;;;;;;20.03;18.13;;;10.70;77.70;;;;;;6288521;28;20229;-78
2023/04/16 09:52:22;;;;;;;20.63;18.63;;;10.70;77.70;;;;;;6299070;28;20486;-80
2023/04/16 09:55:27;;;;;;;22.93;19.47;;;10.70;77.50;;;;;;6297370;28;20241;-80
2023/04/16 09:58:30;;;;;;;20.77;18.57;;;10.70;77.20;;;;;;6283411;28;20449;-81
2023/04/16 10:01:34;;;;;;;20.47;18.40;;;10.70;77.10;;;;;;6280546;28;20229;-81
2023/04/16 10:04:49;;;;;;;22.83;19.67;;;10.70;77.10;;;;;;6290638;28;20221;-78
2023/04/16 10:07:52;;;;;;;21.40;19.30;;;10.80;77.20;;;;;;6280306;28;20536;-81
2023/04/16 10:10:56;;;;;;;20.33;18.30;;;10.90;77.20;;;;;;6284633;28;20736;-83
2023/04/16 10:14:00;;;;;;;21.33;19.13;;;11.00;77.10;;;;;;6299256;28;20240;-77
2023/04/16 10:17:04;;;;;;;20.77;18.67;;;11.10;76.40;;;;;;6297243;28;20234;-80
2023/04/16 10:20:10;;;;;;;19.90;18.00;;;11.20;76.00;;;;;;6290564;28;20636;-81
2023/04/16 10:23:13;;;;;;;20.10;18.07;;;11.30;76.10;;;;;;6289362;28;20560;-79
2023/04/16 10:26:18;;;;;;;22.03;19.57;;;11.30;76.00;;;;;;6284085;28;20233;-80
2023/04/16 10:29:21;;;;;;;24.80;22.10;;;11.40;75.40;;;;;;6290396;28;20225;-81
2023/04/16 10:32:27;;;;;;;22.50;20.20;;;11.30;75.10;;;;;;6289406;28;20239;-78
2023/04/16 10:35:32;;;;;;;23.77;21.30;;;11.30;75.40;;;;;;6281831;28;20229;-80
2023/04/16 10:38:35;;;;;;;25.33;22.73;;;11.30;75.50;;;;;;6288717;28;20234;-78
2023/04/16 10:41:38;;;;;;;26.13;22.60;;;11.20;75.50;;;;;;6289374;28;20244;-81
2023/04/16 10:44:42;;;;;;;27.17;24.27;;;11.10;75.50;;;;;;6282644;28;20229;-82
2023/04/16 10:47:47;;;;;;;25.67;22.93;;;11.20;75.40;;;;;;6289598;28;20240;-81
2023/04/16 10:51:01;;;;;;;26.97;23.50;;;11.10;75.40;;;;;;6288957;28;20234;-80
2023/04/16 10:54:21;;;;;;;25.13;22.23;;;11.10;75.50;;;;;;6284053;28;20279;-82
2023/04/16 10:57:29;;;;;;;23.33;21.03;;;11.10;75.50;;;;;;6286738;28;20794;-81
2023/04/16 11:00:48;;;;;;;22.70;20.33;;;11.20;75.50;;;;;;6287126;28;20399;-81
2023/04/16 11:03:53;;;;;;;23.57;21.30;;;11.20;75.70;;;;;;6285327;28;20237;-81
2023/04/16 11:07:15;;;;;;;24.07;21.63;;;11.30;75.50;;;;;;6289500;28;20628;-79
2023/04/16 11:10:18;;;;;;;21.97;19.90;;;11.30;75.30;;;;;;6286487;28;20283;-81
2023/04/16 11:13:21;;;;;;;22.83;20.63;;;11.30;75.20;;;;;;6292634;28;20233;-79
2023/04/16 11:16:26;;;;;;;20.93;18.73;;;11.40;75.10;;;;;;6289982;28;20515;-81
2023/04/16 11:19:29;;;;;;;20.73;18.83;;;11.50;75.00;;;;;;6291489;28;20279;-82
2023/04/16 11:22:35;;;;;;;22.03;19.87;;;11.80;74.70;;;;;;6306875;28;20216;-76
2023/04/16 11:25:38;;;;;;;20.97;19.17;;;12.00;73.30;;;;;;6314776;28;20244;-77
2023/04/16 11:28:41;;;;;;;19.53;17.70;;;12.00;73.60;;;;;;6320351;28;20289;-77
2023/04/16 11:31:50;;;;;;;18.80;16.97;;;12.00;73.20;;;;;;6318146;28;20242;-77
2023/04/16 11:34:54;;;;;;;19.17;17.47;;;12.00;73.10;;;;;;6314919;28;20279;-77
2023/04/16 11:37:59;;;;;;;20.17;18.47;;;11.90;73.20;;;;;;6317415;28;20224;-76
2023/04/16 11:41:02;;;;;;;19.90;18.27;;;11.90;73.30;;;;;;6317702;28;20385;-78
2023/04/16 11:44:18;;;;;;;22.10;20.13;;;11.90;73.10;;;;;;6291247;28;20240;-81
2023/04/16 11:47:21;;;;;;;19.60;17.90;;;11.80;73.00;;;;;;6278740;28;20229;-82
2023/04/16 11:50:26;;;;;;;20.00;18.30;;;11.70;73.20;;;;;;6291253;28;20538;-81
2023/04/16 11:53:31;;;;;;;20.00;18.07;;;11.70;73.20;;;;;;6287590;28;20225;-81
2023/04/16 11:56:36;;;;;;;19.37;17.70;;;11.70;73.00;;;;;;6290627;28;20246;-80
2023/04/16 11:59:47;;;;;;;19.43;17.67;;;11.70;73.20;;;;;;6292914;28;20654;-82
2023/04/16 12:03:05;;;;;;;19.00;17.40;;;11.80;73.00;;;;;;6283925;28;20249;-78
2023/04/16 12:06:08;;;;;;;19.37;17.77;;;11.90;72.80;;;;;;6288355;28;20233;-79
2023/04/16 12:09:26;;;;;;;20.13;18.33;;;11.90;72.80;;;;;;6308038;28;20221;-77
2023/04/16 12:12:31;;;;;;;19.03;17.43;;;11.90;72.50;;;;;;6315429;28;20232;-78
2023/04/16 12:15:44;;;;;;;17.47;15.83;;;11.70;72.90;;;;;;6319532;28;20413;-76
2023/04/16 12:19:03;;;;;;;18.63;17.13;;;11.70;72.90;;;;;;6313247;28;20218;-78
2023/04/16 12:22:06;;;;;;;18.27;16.77;;;11.50;73.10;;;;;;6307832;28;20297;-77
2023/04/16 12:25:13;;;;;;;16.60;15.20;;;11.40;73.30;;;;;;6315872;28;20288;-78
2023/04/16 12:28:27;;;;;;;17.17;15.80;;;11.30;73.80;;;;;;6293387;28;20229;-78
2023/04/16 12:31:37;;;;;;;17.23;15.67;;;11.30;73.70;;;;;;6290005;28;20681;-82
2023/04/16 12:34:50;;;;;;;15.07;13.77;;;11.30;73.60;;;;;;6289660;28;20245;-79
2023/04/16 12:37:53;;;;;;;16.70;15.13;;;11.30;73.60;;;;;;6287464;28;20716;-79
2023/04/16 12:40:58;;;;;;;17.03;15.53;;;11.20;73.90;;;;;;6289181;28;20233;-80
2023/04/16 12:44:07;;;;;;;15.10;13.93;;;11.10;74.00;;;;;;6288689;28;20237;-84
2023/04/16 12:47:11;;;;;;;16.57;15.10;;;11.10;74.30;;;;;;6280877;28;20248;-81
2023/04/16 12:50:14;;;;;;;17.53;16.00;;;11.00;74.70;;;;;;6289834;28;20237;-79
2023/04/16 12:53:17;;;;;;;15.90;14.67;;;10.90;75.10;;;;;;6279515;28;20737;-80
2023/04/16 12:56:22;;;;;;;16.30;14.90;;;10.90;75.30;;;;;;6290258;28;20732;-82
2023/04/16 12:59:25;;;;;;;15.37;14.07;;;10.90;75.60;;;;;;6289634;28;20237;-82
2023/04/16 13:02:28;;;;;;;15.07;13.77;;;10.80;75.00;;;;;;6279932;28;20244;-80
2023/04/16 13:05:31;;;;;;;14.83;13.63;;;10.80;75.30;;;;;;6288337;28;20374;-79
2023/04/16 13:08:34;;;;;;;14.93;13.63;;;10.80;75.40;;;;;;6284462;28;20221;-79
2023/04/16 13:11:39;;;;;;;14.10;13.00;;;10.70;75.40;;;;;;6288753;28;20233;-81
2023/04/16 13:14:42;;;;;;;15.00;13.83;;;10.70;75.50;;;;;;6289930;28;20229;-80
2023/04/16 13:17:47;;;;;;;14.60;13.43;;;10.60;75.70;;;;;;6281475;28;20266;-83
2023/04/16 13:20:52;;;;;;;14.83;13.43;;;10.60;75.60;;;;;;6291819;28;20237;-84
2023/04/16 13:23:55;;;;;;;14.13;12.73;;;10.70;75.30;;;;;;6306486;28;20301;-77
2023/04/16 13:27:00;;;;;;;13.23;12.23;;;10.70;75.00;;;;;;6289874;28;20241;-79
2023/04/16 13:30:03;;;;;;;13.10;11.97;;;10.70;75.10;;;;;;6282106;28;20237;-84
2023/04/16 13:33:09;;;;;;;14.20;13.03;;;10.70;75.10;;;;;;6284317;28;20225;-83
2023/04/16 13:36:13;;;;;;;11.47;10.47;;;10.80;75.00;;;;;;6290109;28;20236;-78
2023/04/16 13:39:16;;;;;;;12.53;11.47;;;10.80;75.20;;;;;;6283091;28;20229;-84
2023/04/16 13:42:20;;;;;;;12.43;11.23;;;10.90;75.30;;;;;;6288891;28;20243;-80
2023/04/16 13:45:24;;;;;;;11.40;10.50;;;11.10;74.70;;;;;;6302010;28;20237;-84
2023/04/16 13:48:28;;;;;;;12.80;11.60;;;11.10;74.70;;;;;;6284874;28;20237;-86
2023/04/16 13:51:33;;;;;;;12.63;11.63;;;11.10;74.70;;;;;;6281673;28;20612;-80
2023/04/16 13:54:36;;;;;;;13.17;12.07;;;11.20;74.50;;;;;;6272293;28;20231;-80
2023/04/16 13:57:42;;;;;;;11.17;10.37;;;11.20;74.30;;;;;;6286427;28;20718;-81
2023/04/16 14:00:45;;;;;;;11.50;10.70;;;11.30;74.40;;;;;;6287466;28;20674;-82
2023/04/16 14:03:49;;;;;;;11.90;11.03;;;11.50;73.90;;;;;;6284871;28;20236;-83
2023/04/16 14:06:52;;;;;;;12.60;11.50;;;11.60;73.50;;;;;;6291310;28;20237;-81
2023/04/16 14:09:55;;;;;;;13.67;12.57;;;11.70;72.80;;;;;;6296677;28;20239;-83
2023/04/16 14:13:00;;;;;;;13.57;12.30;;;11.90;72.70;;;;;;6286521;28;20320;-80
2023/04/16 14:16:03;;;;;;;11.77;10.97;;;12.00;72.00;;;;;;6293992;28;20620;-80
2023/04/16 14:19:06;;;;;;;12.03;11.03;;;12.10;72.10;;;;;;6290621;28;20334;-83
2023/04/16 14:22:09;;;;;;;12.20;11.30;;;12.10;71.80;;;;;;6281351;28;20236;-79
2023/04/16 14:25:12;;;;;;;12.77;11.73;;;12.10;71.60;;;;;;6290761;28;20223;-80
2023/04/16 14:28:17;;;;;;;12.10;11.17;;;12.00;71.50;;;;;;6316556;28;20281;-79
2023/04/16 14:31:20;;;;;;;11.83;10.90;;;12.00;71.40;;;;;;6318211;28;20239;-80
2023/04/16 14:34:23;;;;;;;13.17;12.07;;;11.90;71.60;;;;;;6319379;28;20244;-79
2023/04/16 14:37:26;;;;;;;12.83;11.83;;;11.90;71.50;;;;;;6312242;28;20362;-82
2023/04/16 14:40:30;;;;;;;10.43;9.73;;;11.70;71.60;;;;;;6289620;28;20528;-81
2023/04/16 14:43:34;;;;;;;10.00;9.27;;;11.60;71.50;;;;;;6292239;28;20251;-83
2023/04/16 14:46:39;;;;;;;10.93;10.13;;;11.50;72.00;;;;;;6289488;28;20237;-79
2023/04/16 14:49:42;;;;;;;10.13;9.43;;;11.40;72.40;;;;;;6290997;28;20225;-81
2023/04/16 14:52:46;;;;;;;10.77;10.07;;;11.30;72.50;;;;;;6288736;28;20233;-81
2023/04/16 14:55:49;;;;;;;11.27;10.43;;;11.30;72.50;;;;;;6289187;28;20240;-80
2023/04/16 14:58:53;;;;;;;12.07;11.10;;;11.20;72.80;;;;;;6291279;28;20233;-81
2023/04/16 15:01:56;;;;;;;12.90;11.70;;;11.10;73.20;;;;;;6295297;28;20263;-83
2023/04/16 15:05:00;;;;;;;13.53;12.30;;;11.10;73.40;;;;;;6293726;28;20237;-80
2023/04/16 15:08:04;;;;;;;12.83;11.90;;;11.10;73.50;;;;;;6285072;28;20815;-80
2023/04/16 15:11:07;;;;;;;12.27;11.33;;;11.00;73.70;;;;;;6275121;28;20249;-81
2023/04/16 15:14:14;;;;;;;13.53;12.27;;;10.90;74.20;;;;;;6290045;28;20237;-81
2023/04/16 15:17:17;;;;;;;13.17;11.80;;;10.70;74.70;;;;;;6279722;28;20240;-80
2023/04/16 15:20:20;;;;;;;12.73;11.63;;;10.60;75.00;;;;;;6289633;28;20234;-80
2023/04/16 15:23:23;;;;;;;11.53;10.73;;;10.50;75.20;;;;;;6281324;28;20230;-80
2023/04/16 15:26:26;;;;;;;11.53;10.63;;;10.50;75.40;;;;;;6286164;28;20249;-81
2023/04/16 15:29:31;;;;;;;12.70;11.60;;;10.50;75.50;;;;;;6291287;28;20838;-78
2023/04/16 15:32:34;;;;;;;11.50;10.77;;;10.40;75.50;;;;;;6280967;28;20233;-81
2023/04/16 15:35:40;;;;;;;11.70;11.00;;;10.40;75.70;;;;;;6282814;28;20419;-82
2023/04/16 15:38:43;;;;;;;11.50;10.57;;;10.40;75.80;;;;;;6288285;28;20229;-83
2023/04/16 15:41:46;;;;;;;12.70;11.80;;;10.30;75.80;;;;;;6285145;28;20229;-81